Time;durP1;ratioP1;P1;durP2;ratioP2;P2;SDS_P1;SDS_P2;PMS_P1;PMS_P2;Temp;Humidity;BMP_temperature;BMP_pressure;BME280_temperature;BME280_humidity;BME280_pressure;Samples;Min_cycle;Max_cycle;Signal;HPM_P1;HPM_P2
2021/08/13 00:02:17;;;;;;;;;;;;;;;;;;;;;
2021/08/13 00:05:30;;;;;;;;;;;;;;;;;;;;;
2021/08/13 00:08:21;;;;;;;5.65;2.50;;;;;;;21.11;72.46;93256.03;4956986;28;20082;-93
2021/08/13 00:11:30;;;;;;;;;;;;;;;;;;;;;
2021/08/13 00:14:32;;;;;;;2.53;1.83;;;;;;;21.41;67.40;93253.94;4928312;29;20501;-94
2021/08/13 00:17:14;;;;;;;4.40;2.57;;;;;;;21.12;67.94;93201.69;4912949;29;20114;-94
2021/08/13 00:20:05;;;;;;;6.63;2.03;;;;;;;21.24;66.87;93181.50;4909771;29;20078;-94
2021/08/13 00:23:03;;;;;;;3.60;2.42;;;;;;;21.19;66.54;93177.16;4971117;28;20046;-95
2021/08/13 00:26:07;;;;;;;;;;;;;;;;;;;;;
2021/08/13 00:29:28;;;;;;;;;;;;;;;;;;;;;
2021/08/13 00:32:40;;;;;;;;;;;;;;;;;;;;;
2021/08/13 00:38:40;;;;;;;3.63;2.25;;;;;;;21.39;64.27;93178.09;4920518;29;20668;-94
2021/08/13 00:41:47;;;;;;;2.75;1.70;;;;;;;21.10;64.37;93153.34;4940926;29;20039;-95
2021/08/13 00:44:32;;;;;;;;;;;;;;;;;;;;;
2021/08/13 00:47:31;;;;;;;;;;;;;;;;;;;;;
2021/08/13 00:50:54;;;;;;;;;;;;;;;;;;;;;
2021/08/13 00:53:52;;;;;;;3.15;1.92;;;;;;;20.25;71.49;93188.63;4959462;28;20612;-95
2021/08/13 00:56:39;;;;;;;3.28;2.08;;;;;;;20.03;71.40;93177.28;4947815;28;20057;-94
2021/08/13 01:00:08;;;;;;;;;;;;;;;;;;;;;
2021/08/13 01:03:29;;;;;;;3.15;1.63;;;;;;;19.92;73.21;93186.75;4956368;29;20057;-94
2021/08/13 01:07:07;;;;;;;;;;;;;;;;;;;;;
2021/08/13 01:10:01;;;;;;;3.22;1.95;;;;;;;19.81;73.45;93183.72;4933393;29;20090;-94
2021/08/13 01:13:30;;;;;;;4.47;2.30;;;;;;;19.86;74.51;93198.69;4920024;29;20046;-93
2021/08/13 01:16:09;;;;;;;3.92;2.17;;;;;;;19.61;76.77;93179.97;4895967;29;20043;-94
2021/08/13 01:22:37;;;;;;;5.20;2.05;;;;;;;19.75;76.16;93217.69;4937704;29;20478;-94
2021/08/13 01:25:47;;;;;;;;;;;;;;;;;;;;;
2021/08/13 01:29:09;;;;;;;4.93;2.10;;;;;;;19.62;77.71;93202.75;4918260;29;20539;-94
2021/08/13 01:32:22;;;;;;;3.65;2.40;;;;;;;19.56;76.90;93199.50;4915875;29;20505;-94
2021/08/13 01:35:45;;;;;;;2.63;1.60;;;;;;;19.35;76.61;93167.66;4922143;29;20047;-93
2021/08/13 01:39:03;;;;;;;;;;;;;;;;;;;;;
2021/08/13 01:42:01;;;;;;;4.80;2.60;;;;;;;19.47;77.37;93204.13;4935378;29;20127;-94
2021/08/13 01:44:47;;;;;;;5.28;2.97;;;;;;;19.20;77.19;93160.28;4933963;29;20134;-95
2021/08/13 01:47:59;;;;;;;3.35;2.33;;;;;;;19.43;77.34;93200.56;4919886;29;20032;-94
2021/08/13 01:50:39;;;;;;;7.22;2.10;;;;;;;19.21;76.97;93169.81;4926914;29;20113;-94
2021/08/13 01:53:42;;;;;;;3.83;2.15;;;;;;;19.45;77.95;93208.97;4922939;29;20039;-94
2021/08/13 01:56:29;;;;;;;3.05;1.95;;;;;;;19.21;77.80;93167.16;4908633;29;20048;-94
2021/08/13 01:59:19;;;;;;;4.03;2.50;;;;;;;19.22;76.94;93163.41;4915446;29;20054;-94
2021/08/13 02:02:15;;;;;;;5.32;2.95;;;;;;;19.37;76.84;93185.94;4923218;29;20043;-94
2021/08/13 02:05:05;;;;;;;2.85;1.92;;;;;;;19.45;76.67;93192.28;4922694;29;20047;-94
2021/08/13 02:08:18;;;;;;;;;;;;;;;;;;;;;
2021/08/13 02:11:18;;;;;;;;;;;;;;;;;;;;;
2021/08/13 02:14:19;;;;;;;;;;;;;;;;;;;;;
2021/08/13 02:17:52;;;;;;;;;;;;;;;;;;;;;
2021/08/13 02:20:44;;;;;;;2.53;1.55;;;;;;;19.35;72.27;93183.59;4945183;28;20085;-94
2021/08/13 02:24:17;;;;;;;;;;;;;;;;;;;;;
2021/08/13 02:32:59;;;;;;;4.38;1.85;;;;;;;20.11;67.32;93240.19;4939658;28;20067;-91
2021/08/13 02:35:37;;;;;;;;;;;;;;;;;;;;;
2021/08/13 02:38:13;;;;;;;3.08;1.95;;;;;;;20.21;67.95;93246.22;4937717;29;20650;-92
2021/08/13 02:40:59;;;;;;;3.28;1.70;;;;;;;20.24;68.29;93259.63;4939686;29;20042;-90
2021/08/13 02:43:37;;;;;;;4.78;1.77;;;;;;;20.14;68.63;93244.09;4937642;29;20066;-92
2021/08/13 02:46:09;;;;;;;5.60;2.65;;;;;;;20.13;68.63;93256.59;4937628;29;20872;-92
2021/08/13 02:48:45;;;;;;;2.97;1.83;;;;;;;20.10;68.78;93257.22;4938598;29;20047;-91
2021/08/13 02:51:17;;;;;;;4.28;2.13;;;;;;;19.99;69.73;93256.09;4922993;29;20059;-90
2021/08/13 02:53:49;;;;;;;4.50;2.25;;;;;;;19.93;69.66;93254.75;4937869;29;20031;-91
2021/08/13 02:56:18;;;;;;;4.35;2.17;;;;;;;19.89;69.54;93264.47;4932964;29;20035;-91
2021/08/13 03:02:03;;;;;;;5.72;2.28;;;;;;;19.94;67.81;93258.94;5953969;23;20029;-93
2021/08/13 03:04:43;;;;;;;3.47;2.30;;;;;;;19.83;68.56;93249.81;4912949;29;20047;-92
2021/08/13 03:07:20;;;;;;;3.63;1.92;;;;;;;19.85;68.49;93258.25;4903909;29;20071;-92
2021/08/13 03:09:53;;;;;;;1.85;1.60;;;;;;;19.85;68.20;93259.00;4918868;29;20087;-92
2021/08/13 03:12:50;;;;;;;3.70;2.05;;;;;;;19.83;67.38;93255.13;4916366;29;20134;-92
2021/08/13 03:15:21;;;;;;;3.28;1.98;;;;;;;19.84;67.59;93270.75;4889036;29;20052;-92
2021/08/13 03:17:51;;;;;;;3.00;1.52;;;;;;;19.83;68.00;93265.75;4899260;29;20084;-92
2021/08/13 03:20:32;;;;;;;2.85;1.90;;;;;;;19.80;68.36;93269.84;4918191;29;20036;-92
2021/08/13 03:23:09;;;;;;;4.50;2.50;;;;;;;19.76;68.55;93267.03;4903808;29;20127;-93
2021/08/13 03:25:39;;;;;;;4.30;2.20;;;;;;;19.74;69.07;93263.94;4932388;29;20521;-92
2021/08/13 03:28:12;;;;;;;2.58;1.60;;;;;;;19.70;69.83;93273.69;4919040;29;20501;-92
2021/08/13 03:30:54;;;;;;;4.15;2.42;;;;;;;19.67;69.98;93289.44;4917836;29;20040;-92
2021/08/13 03:33:32;;;;;;;6.38;1.83;;;;;;;19.65;69.50;93281.78;4918090;29;20050;-94
2021/08/13 03:36:10;;;;;;;4.72;2.47;;;;;;;19.63;69.41;93264.63;4902153;29;20401;-92
2021/08/13 03:38:39;;;;;;;3.90;2.45;;;;;;;19.68;69.30;93280.34;4888023;29;20063;-92
2021/08/13 03:41:06;;;;;;;6.18;2.92;;;;;;;19.60;69.82;93268.69;4886648;29;20040;-91
2021/08/13 03:43:34;;;;;;;4.55;2.50;;;;;;;19.58;70.03;93270.91;4886567;29;20157;-92
2021/08/13 03:46:11;;;;;;;4.13;2.25;;;;;;;19.64;70.19;93280.25;4903698;29;20032;-94
2021/08/13 03:48:48;;;;;;;;;;;;;;;;;;;;;
2021/08/13 03:51:16;;;;;;;3.53;2.10;;;;;;;19.64;69.03;93282.13;4920231;29;20497;-93
2021/08/13 03:53:44;;;;;;;3.10;1.88;;;;;;;19.64;68.07;93285.56;4889704;29;20400;-93
2021/08/13 03:56:10;;;;;;;3.92;2.05;;;;;;;19.69;67.80;93282.72;4905213;29;20127;-92
2021/08/13 03:58:48;;;;;;;3.40;2.08;;;;;;;19.67;68.13;93271.63;4921076;29;20063;-91
2021/08/13 04:01:19;;;;;;;2.75;1.50;;;;;;;19.61;68.30;93272.13;4907038;29;20420;-92
2021/08/13 04:03:54;;;;;;;5.65;2.40;;;;;;;19.56;68.17;93262.47;4947598;29;20058;-92
2021/08/13 04:06:25;;;;;;;8.38;2.92;;;;;;;19.58;67.89;93275.44;4940174;29;20479;-91
2021/08/13 04:09:14;;;;;;;3.83;2.22;;;;;;;19.56;68.12;93267.78;4923984;29;20054;-93
2021/08/13 04:11:51;;;;;;;7.28;2.20;;;;;;;19.57;69.40;93264.03;4925115;29;20677;-93
2021/08/13 04:14:29;;;;;;;5.68;2.70;;;;;;;19.51;69.45;93266.09;4955437;29;20130;-92
2021/08/13 04:17:00;;;;;;;14.32;2.90;;;;;;;19.53;69.58;93279.06;4939997;29;20480;-93
2021/08/13 04:19:33;;;;;;;3.22;2.03;;;;;;;19.43;69.71;93279.44;4955748;29;20134;-92
2021/08/13 04:22:12;;;;;;;4.15;2.45;;;;;;;19.42;69.64;93288.50;4956064;29;20039;-92
2021/08/13 04:24:43;;;;;;;2.10;1.38;;;;;;;19.46;66.24;93284.88;4954722;29;20055;-93
2021/08/13 04:27:13;;;;;;;5.60;2.00;;;;;;;19.47;66.45;93286.41;4939941;29;20062;-93
2021/08/13 04:29:46;;;;;;;4.35;2.15;;;;;;;19.52;67.04;93290.78;4940454;28;20039;-92
2021/08/13 04:32:32;;;;;;;;;;;;;;;;;;;;;
2021/08/13 04:35:00;;;;;;;4.25;2.22;;;;;;;19.43;67.47;93290.03;4954396;29;20045;-93
2021/08/13 04:37:31;;;;;;;3.72;2.30;;;;;;;19.46;66.98;93294.72;4939624;29;20039;-92
2021/08/13 04:40:02;;;;;;;4.82;2.13;;;;;;;19.49;66.44;93292.19;4924228;29;20040;-92
2021/08/13 04:42:32;;;;;;;6.68;1.85;;;;;;;19.58;68.13;93300.09;4939363;29;20039;-92
2021/08/13 04:45:01;;;;;;;4.20;2.15;;;;;;;19.59;68.51;93306.19;4955090;29;20046;-91
2021/08/13 04:47:32;;;;;;;5.65;1.90;;;;;;;19.53;68.35;93300.31;4923032;29;20043;-93
2021/08/13 04:50:20;;;;;;;3.88;1.52;;;;;;;19.49;68.33;93316.09;4954620;29;20035;-91
2021/08/13 04:53:02;;;;;;;2.67;1.77;;;;;;;19.39;68.22;93305.84;4954681;29;20043;-92
2021/08/13 04:55:35;;;;;;;2.70;1.60;;;;;;;19.42;68.32;93307.09;4938972;29;20035;-92
2021/08/13 04:58:06;;;;;;;2.17;1.50;;;;;;;19.43;68.84;93305.97;4938894;29;20108;-92
2021/08/13 05:00:39;;;;;;;3.20;1.98;;;;;;;19.39;68.84;93300.53;4924587;29;20487;-91
2021/08/13 05:03:26;;;;;;;3.25;1.98;;;;;;;19.48;68.72;93317.19;4941534;29;20563;-92
2021/08/13 05:06:00;;;;;;;2.67;1.77;;;;;;;19.52;68.23;93310.16;4935590;29;20421;-91
2021/08/13 05:08:38;;;;;;;3.30;1.92;;;;;;;19.56;67.67;93299.66;4921540;29;20047;-91
2021/08/13 05:11:06;;;;;;;4.32;2.03;;;;;;;19.67;67.76;93300.81;4919613;29;20043;-90
2021/08/13 05:13:34;;;;;;;3.13;2.03;;;;;;;19.74;67.81;93306.44;4919515;29;20115;-92
2021/08/13 05:16:23;;;;;;;4.20;2.00;;;;;;;19.81;67.79;93307.81;4904828;29;20067;-92
2021/08/13 05:18:59;;;;;;;3.92;2.63;;;;;;;19.88;67.52;93310.72;4918640;29;20477;-91
2021/08/13 05:21:28;;;;;;;4.43;2.40;;;;;;;20.00;67.26;93329.41;4935642;29;20046;-92
2021/08/13 05:24:01;;;;;;;3.03;1.80;;;;;;;20.06;66.76;93312.16;4935553;29;20032;-92
2021/08/13 05:26:27;;;;;;;4.20;2.17;;;;;;;20.24;65.30;93322.63;4920007;29;20035;-92
2021/08/13 05:29:01;;;;;;;2.72;1.67;;;;;;;20.38;65.39;93333.78;4919383;29;20083;-92
2021/08/13 05:31:37;;;;;;;3.13;1.73;;;;;;;20.53;64.93;93338.47;4920743;29;20040;-92
2021/08/13 05:34:13;;;;;;;;;;;;;;;;;;;;;
2021/08/13 05:37:09;;;;;;;;;;;;;;;;;;;;;
2021/08/13 05:39:41;;;;;;;3.08;1.75;;;;;;;20.77;66.27;93329.06;4935567;29;20113;-91
2021/08/13 05:42:07;;;;;;;3.78;2.22;;;;;;;20.87;66.17;93347.25;4934533;29;20039;-91
2021/08/13 05:44:42;;;;;;;4.95;1.60;;;;;;;20.96;64.25;93342.63;4919686;29;20032;-93
2021/08/13 05:47:19;;;;;;;3.42;1.88;;;;;;;21.08;64.40;93338.44;4919337;29;20067;-91
2021/08/13 05:49:52;;;;;;;5.47;1.80;;;;;;;21.23;64.14;93343.09;4923004;29;20043;-93
2021/08/13 05:57:02;;;;;;;3.15;1.50;;;;;;;21.63;63.23;93356.56;4919036;29;20580;-95
2021/08/13 06:08:19;;;;;;;;;;;;;;;;;;;;;
2021/08/13 06:32:07;;;;;;;;;;;;;;;;;;;;;
2021/08/13 08:22:50;;;;;;;4.95;2.90;;;;;;;26.35;57.72;93429.09;5008748;23;20208;-79
2021/08/13 08:25:16;;;;;;;5.10;2.90;;;;;;;26.32;59.59;93429.81;4995386;28;20058;-80
2021/08/13 08:27:41;;;;;;;4.40;2.78;;;;;;;26.45;59.35;93433.03;4997609;28;20050;-80
2021/08/13 08:30:07;;;;;;;3.83;2.20;;;;;;;26.80;58.20;93434.69;4964703;28;20511;-80
2021/08/13 08:32:33;;;;;;;4.03;2.55;;;;;;;26.98;54.71;93434.91;5015725;28;20038;-79
2021/08/13 08:34:58;;;;;;;6.45;2.72;;;;;;;26.99;51.70;93436.44;5015146;28;20080;-80
2021/08/13 08:37:24;;;;;;;4.20;2.53;;;;;;;27.31;56.48;93438.72;4999984;28;20132;-80
2021/08/13 08:39:50;;;;;;;4.88;2.80;;;;;;;27.11;56.58;93444.25;5017922;28;20042;-80
2021/08/13 08:42:18;;;;;;;6.00;2.78;;;;;;;27.11;56.64;93444.25;4992544;28;20034;-80
2021/08/13 08:44:44;;;;;;;5.55;3.08;;;;;;;26.77;56.46;93452.31;4999447;28;20030;-81
2021/08/13 08:47:11;;;;;;;7.22;2.92;;;;;;;26.92;54.95;93452.47;5005211;28;20050;-80
2021/08/13 08:49:41;;;;;;;4.68;2.80;;;;;;;27.24;54.46;93457.47;5017165;28;20042;-80
2021/08/13 08:52:07;;;;;;;4.00;2.30;;;;;;;27.58;53.46;93456.28;4995376;28;20121;-80
2021/08/13 08:54:38;;;;;;;5.05;2.85;;;;;;;27.68;54.04;93459.44;4997661;28;20053;-80
2021/08/13 08:57:05;;;;;;;8.60;2.97;;;;;;;27.59;54.81;93457.06;5005825;28;20049;-80
2021/08/13 08:59:31;;;;;;;3.72;2.13;;;;;;;27.45;54.86;93457.69;5018081;28;20416;-79
2021/08/13 09:01:58;;;;;;;5.82;2.53;;;;;;;27.10;56.14;93458.81;5006187;28;20189;-80
2021/08/13 09:04:24;;;;;;;5.88;2.83;;;;;;;27.30;54.75;93456.75;5007469;28;20512;-80
2021/08/13 09:06:50;;;;;;;3.60;2.22;;;;;;;27.58;53.73;93458.97;4997622;28;20046;-79
2021/08/13 09:09:16;;;;;;;3.67;2.35;;;;;;;27.70;54.55;93463.31;5009054;28;20145;-80
2021/08/13 09:11:42;;;;;;;5.85;2.72;;;;;;;26.92;56.35;93465.91;5019182;28;20476;-78
2021/08/13 09:14:47;;;;;;;5.50;3.17;;;;;;;26.28;57.92;93474.63;5015127;28;20041;-77
2021/08/13 09:17:13;;;;;;;4.75;2.95;;;;;;;25.82;59.78;93474.63;5015851;28;20045;-77
2021/08/13 09:19:48;;;;;;;4.28;2.80;;;;;;;26.26;58.34;93487.63;5015120;28;20083;-78
2021/08/13 09:22:17;;;;;;;9.25;3.45;;;;;;;26.57;58.02;93483.88;5007248;28;20188;-77
2021/08/13 09:24:48;;;;;;;5.38;2.85;;;;;;;26.97;57.43;93493.19;5011873;28;20037;-77
2021/08/13 09:27:29;;;;;;;4.25;2.78;;;;;;;27.02;56.73;93494.81;4994513;28;20035;-78
2021/08/13 09:30:18;;;;;;;4.32;2.70;;;;;;;25.94;58.83;93482.53;4982793;28;20089;-78
2021/08/13 09:33:00;;;;;;;4.32;2.42;;;;;;;26.28;57.53;93479.97;4997322;28;20057;-78
2021/08/13 09:35:30;;;;;;;8.20;3.15;;;;;;;26.16;58.23;93490.91;4975803;28;20507;-79
2021/08/13 09:37:56;;;;;;;3.70;2.40;;;;;;;26.48;56.96;93487.91;5001057;28;20049;-78
2021/08/13 09:40:22;;;;;;;3.97;2.22;;;;;;;26.53;55.63;93480.34;4992827;28;20565;-78
2021/08/13 09:42:49;;;;;;;4.50;2.85;;;;;;;26.59;58.29;93488.88;4994954;28;20038;-78
2021/08/13 09:45:15;;;;;;;4.82;3.00;;;;;;;26.79;58.10;93487.63;4993145;28;20053;-78
2021/08/13 09:47:41;;;;;;;4.75;2.50;;;;;;;26.95;54.66;93479.38;4964241;28;20043;-79
2021/08/13 09:50:13;;;;;;;4.47;2.50;;;;;;;26.49;56.52;93486.78;4976106;28;20496;-80
2021/08/13 09:52:39;;;;;;;6.70;2.72;;;;;;;27.41;53.70;93481.06;4994841;28;20104;-80
2021/08/13 09:55:12;;;;;;;4.43;2.45;;;;;;;27.35;54.70;93482.53;4996339;28;20088;-79
2021/08/13 09:57:46;;;;;;;5.53;2.70;;;;;;;27.21;55.29;93480.47;4993916;28;20050;-79
2021/08/13 10:00:14;;;;;;;5.63;3.15;;;;;;;27.11;55.35;93481.88;5016718;28;20048;-80
2021/08/13 10:02:42;;;;;;;4.18;2.63;;;;;;;26.88;56.48;93483.88;5000429;28;20052;-80
2021/08/13 10:05:21;;;;;;;6.70;3.53;;;;;;;26.28;59.33;93479.97;5018969;28;20116;-79
2021/08/13 10:07:51;;;;;;;4.35;2.60;;;;;;;26.29;61.19;93481.50;4996609;28;20096;-79
2021/08/13 10:10:24;;;;;;;7.63;3.40;;;;;;;26.10;60.12;93487.00;4983614;28;20042;-79
2021/08/13 10:12:50;;;;;;;8.30;3.75;;;;;;;26.21;60.67;93485.25;4999457;28;20049;-81
2021/08/13 10:15:30;;;;;;;6.13;3.13;;;;;;;26.03;61.90;93484.16;4997747;28;20056;-79
2021/08/13 10:17:58;;;;;;;5.67;3.27;;;;;;;26.41;60.07;93485.13;4961210;28;20054;-78
2021/08/13 10:20:26;;;;;;;5.40;3.60;;;;;;;26.61;59.63;93486.59;5011659;28;20289;-79
2021/08/13 10:23:12;;;;;;;7.57;3.20;;;;;;;26.96;58.73;93486.28;4992006;28;20046;-78
2021/08/13 10:25:39;;;;;;;5.28;2.83;;;;;;;26.85;59.50;93481.94;4976919;28;20038;-77
2021/08/13 10:28:05;;;;;;;5.78;3.08;;;;;;;26.95;57.25;93483.97;4994683;28;20185;-78
2021/08/13 10:30:37;;;;;;;6.38;3.13;;;;;;;26.93;57.12;93483.56;4993238;28;20050;-78
2021/08/13 10:33:07;;;;;;;4.25;2.25;;;;;;;26.41;58.83;93479.75;4993255;28;20042;-78
2021/08/13 10:35:39;;;;;;;5.85;3.35;;;;;;;26.94;56.26;93477.06;4992796;28;20124;-78
2021/08/13 10:38:08;;;;;;;4.10;2.60;;;;;;;27.34;54.04;93476.41;4974071;28;20049;-78
2021/08/13 10:40:34;;;;;;;4.28;2.70;;;;;;;27.19;51.90;93474.66;4956987;28;20035;-79
2021/08/13 10:43:02;;;;;;;4.65;2.95;;;;;;;26.80;53.17;93477.66;4957503;28;20047;-78
2021/08/13 10:45:32;;;;;;;5.68;2.70;;;;;;;27.35;54.66;93474.47;4942690;28;20413;-78
2021/08/13 10:48:26;;;;;;;4.05;2.25;;;;;;;27.46;49.94;93474.59;4960485;28;20050;-77
2021/08/13 10:50:58;;;;;;;3.58;2.10;;;;;;;27.33;54.09;93476.75;4957178;28;20509;-78
2021/08/13 10:53:29;;;;;;;4.50;2.80;;;;;;;27.48;50.94;93472.31;4956880;28;20054;-77
2021/08/13 10:55:57;;;;;;;5.05;2.85;;;;;;;27.41;53.16;93475.69;4958327;28;20122;-77
2021/08/13 10:58:41;;;;;;;3.47;2.35;;;;;;;27.73;51.95;93475.25;4963124;28;20504;-78
2021/08/13 11:01:34;;;;;;;5.60;2.83;;;;;;;27.86;48.03;93481.16;4971039;28;20050;-78
2021/08/13 11:04:01;;;;;;;5.00;2.75;;;;;;;27.54;49.61;93476.22;4973125;28;20039;-79
2021/08/13 11:06:37;;;;;;;10.27;3.17;;;;;;;27.27;49.23;93467.47;4971474;28;20445;-76
2021/08/13 11:09:24;;;;;;;3.37;2.37;;;;;;;26.96;51.13;93466.72;4958892;28;20047;-78
2021/08/13 11:11:53;;;;;;;4.28;2.60;;;;;;;27.29;50.05;93465.19;4956808;28;20047;-77
2021/08/13 11:14:25;;;;;;;4.90;2.42;;;;;;;27.50;50.46;93465.41;4946605;28;20053;-77
2021/08/13 11:16:54;;;;;;;5.47;3.13;;;;;;;27.46;50.95;93463.84;4972815;28;20038;-79
2021/08/13 11:19:20;;;;;;;4.75;2.22;;;;;;;27.44;49.22;93466.13;4972320;28;20096;-78
2021/08/13 11:21:54;;;;;;;5.97;2.88;;;;;;;27.54;50.77;93460.84;4963418;28;20551;-78
2021/08/13 11:24:22;;;;;;;5.43;3.30;;;;;;;27.50;49.75;93460.03;4940323;28;20456;-77
2021/08/13 11:26:53;;;;;;;4.32;2.75;;;;;;;27.57;49.44;93462.78;4957296;28;20450;-78
2021/08/13 11:29:29;;;;;;;4.20;2.65;;;;;;;27.89;50.21;93461.56;4957870;28;20400;-78
2021/08/13 11:32:20;;;;;;;4.35;2.70;;;;;;;27.67;49.92;93457.88;4975006;28;20042;-83
2021/08/13 11:34:52;;;;;;;5.28;2.83;;;;;;;27.92;50.46;93453.53;4952796;28;20115;-84
2021/08/13 11:37:42;;;;;;;5.53;2.97;;;;;;;28.14;46.92;93449.06;4994925;28;20035;-83
2021/08/13 11:40:14;;;;;;;4.78;2.60;;;;;;;27.72;48.40;93441.41;4975207;28;20046;-82
2021/08/13 11:42:55;;;;;;;4.53;2.78;;;;;;;27.91;50.06;93454.66;4968513;28;20571;-84
2021/08/13 11:45:44;;;;;;;5.70;2.60;;;;;;;28.31;47.38;93447.66;4982989;28;20051;-82
2021/08/13 11:48:16;;;;;;;4.55;2.85;;;;;;;28.52;47.92;93457.81;4984666;28;20669;-84
2021/08/13 11:50:42;;;;;;;4.47;2.72;;;;;;;28.32;49.50;93453.81;4956185;28;20397;-82
2021/08/13 11:53:09;;;;;;;5.07;3.42;;;;;;;28.31;50.15;93447.66;4979672;28;20050;-80
2021/08/13 11:55:36;;;;;;;4.88;2.90;;;;;;;29.01;47.66;93459.22;4980202;28;20061;-81
2021/08/13 11:58:07;;;;;;;4.15;2.35;;;;;;;28.73;47.64;93453.69;4977546;28;20046;-81
2021/08/13 12:00:39;;;;;;;7.03;2.35;;;;;;;29.18;49.79;93454.28;4966213;28;20574;-82
2021/08/13 12:03:09;;;;;;;4.93;2.50;;;;;;;29.20;48.48;93455.44;4961855;28;20116;-82
2021/08/13 12:05:41;;;;;;;4.50;2.67;;;;;;;29.04;48.25;93457.69;4977890;28;20528;-80
2021/08/13 12:08:13;;;;;;;3.80;2.45;;;;;;;28.68;47.24;93460.22;4979266;28;20121;-82
2021/08/13 12:10:48;;;;;;;4.63;2.90;;;;;;;28.61;48.09;93452.09;4963102;28;20146;-82
2021/08/13 12:13:15;;;;;;;4.13;2.45;;;;;;;28.90;47.67;93449.53;4975897;28;21287;-81
2021/08/13 12:15:42;;;;;;;4.22;2.58;;;;;;;29.23;46.39;93457.41;4972119;28;20042;-82
2021/08/13 12:18:11;;;;;;;4.57;2.80;;;;;;;29.31;45.40;93455.50;4973081;28;20477;-82
2021/08/13 12:20:38;;;;;;;4.07;2.65;;;;;;;29.04;46.63;93453.06;4961987;28;20098;-83
2021/08/13 12:23:07;;;;;;;6.18;3.42;;;;;;;28.78;47.23;93458.75;5012388;28;20377;-82
2021/08/13 12:25:41;;;;;;;4.60;2.78;;;;;;;28.82;48.60;93448.72;4977811;28;20034;-82
2021/08/13 12:28:08;;;;;;;4.07;2.72;;;;;;;28.71;50.03;93453.28;4998511;28;20057;-81
2021/08/13 12:30:35;;;;;;;4.80;3.05;;;;;;;28.22;48.87;93445.28;5005063;28;20048;-82
2021/08/13 12:33:04;;;;;;;5.25;3.08;;;;;;;28.41;50.15;93452.31;5004800;28;20038;-82
2021/08/13 12:35:42;;;;;;;5.07;2.78;;;;;;;28.58;50.68;93455.56;4985724;28;20046;-83
2021/08/13 12:38:09;;;;;;;5.60;3.05;;;;;;;28.74;48.23;93455.25;4988902;28;20065;-82
2021/08/13 12:40:43;;;;;;;4.75;3.03;;;;;;;28.28;48.97;93453.81;4979157;28;20045;-82
2021/08/13 12:43:10;;;;;;;5.50;3.00;;;;;;;28.43;49.89;93450.03;5004135;28;20037;-82
2021/08/13 12:45:36;;;;;;;5.38;3.20;;;;;;;28.30;49.27;93446.09;4988317;28;20030;-83
2021/08/13 12:48:03;;;;;;;5.25;2.75;;;;;;;28.26;48.81;93442.63;4990431;28;20042;-82
2021/08/13 12:50:29;;;;;;;8.02;3.17;;;;;;;28.49;49.55;93441.66;4993629;28;20065;-82
2021/08/13 12:53:13;;;;;;;9.48;3.13;;;;;;;27.93;50.38;93441.63;4991528;28;20490;-84
2021/08/13 12:55:47;;;;;;;5.40;3.30;;;;;;;28.32;50.87;93441.13;5005781;28;20495;-82
2021/08/13 12:58:42;;;;;;;9.23;2.93;;;;;;;28.43;49.45;93439.25;4998847;28;20136;-83
2021/08/13 13:01:32;;;;;;;4.72;3.33;;;;;;;28.03;50.98;93438.25;4985038;28;20299;-82
2021/08/13 13:04:14;;;;;;;4.85;3.30;;;;;;;28.22;50.82;93436.47;5014220;28;21573;-82
2021/08/13 13:06:48;;;;;;;5.78;3.55;;;;;;;28.43;50.82;93428.50;4973342;28;20050;-82
2021/08/13 13:09:13;;;;;;;5.60;2.78;;;;;;;28.39;49.53;93429.63;5001570;28;20538;-82
2021/08/13 13:11:40;;;;;;;6.53;3.47;;;;;;;28.26;52.90;93437.25;4998493;28;20038;-82
2021/08/13 13:14:06;;;;;;;6.20;2.88;;;;;;;28.62;50.48;93449.03;4969955;28;20053;-82
2021/08/13 13:16:33;;;;;;;6.32;3.53;;;;;;;28.63;51.36;93441.72;4992714;28;20054;-81
2021/08/13 13:19:20;;;;;;;4.85;3.08;;;;;;;28.52;50.92;93427.44;4984456;28;20057;-81
2021/08/13 13:21:50;;;;;;;7.13;3.75;;;;;;;28.74;51.93;93426.38;4984101;28;20050;-81
2021/08/13 13:24:22;;;;;;;6.10;3.28;;;;;;;28.55;50.88;93423.97;4979020;28;20066;-82
2021/08/13 13:27:08;;;;;;;4.65;3.28;;;;;;;28.55;51.13;93427.47;4980576;28;20057;-83
2021/08/13 13:29:54;;;;;;;5.10;2.95;;;;;;;28.93;51.43;93422.59;4984808;28;20050;-81
2021/08/13 13:32:23;;;;;;;6.72;3.38;;;;;;;28.84;51.23;93424.88;4972147;28;20050;-81
2021/08/13 13:35:00;;;;;;;6.00;3.28;;;;;;;28.54;50.87;93419.75;4970594;28;20060;-80
2021/08/13 13:37:52;;;;;;;5.25;3.10;;;;;;;28.48;50.97;93421.25;4989074;28;20046;-81
2021/08/13 13:40:21;;;;;;;6.82;3.33;;;;;;;28.36;51.00;93411.53;4985549;28;20047;-81
2021/08/13 13:42:48;;;;;;;4.15;2.65;;;;;;;28.80;50.08;93414.09;4980734;28;20053;-81
2021/08/13 13:45:18;;;;;;;8.10;3.35;;;;;;;28.86;50.91;93420.66;4975567;28;20104;-82
2021/08/13 13:47:46;;;;;;;8.10;3.85;;;;;;;28.25;51.46;93411.47;4981699;28;20463;-82
2021/08/13 13:50:15;;;;;;;6.30;3.60;;;;;;;28.27;51.04;93409.19;4982063;28;20042;-81
2021/08/13 13:52:42;;;;;;;7.47;3.95;;;;;;;28.21;50.48;93400.69;4976673;28;20074;-82
2021/08/13 13:55:10;;;;;;;7.28;3.63;;;;;;;28.52;51.91;93409.34;4985404;28;20065;-82
2021/08/13 13:57:36;;;;;;;6.35;3.25;;;;;;;28.54;51.90;93411.66;4985682;28;20046;-81
2021/08/13 14:00:05;;;;;;;4.70;3.17;;;;;;;28.64;50.32;93403.66;4986277;28;20060;-81
2021/08/13 14:02:31;;;;;;;5.20;3.50;;;;;;;28.66;50.73;93408.63;4999619;28;20057;-79
2021/08/13 14:04:56;;;;;;;6.20;3.60;;;;;;;28.71;51.56;93408.28;4989852;28;20375;-78
2021/08/13 14:07:23;;;;;;;4.93;3.42;;;;;;;29.01;50.42;93407.25;4975664;28;20046;-81
2021/08/13 14:09:49;;;;;;;16.02;3.85;;;;;;;28.85;50.03;93410.28;4998863;28;20049;-82
2021/08/13 14:12:14;;;;;;;4.22;2.83;;;;;;;29.00;51.42;93405.69;4981695;28;20034;-82
2021/08/13 14:14:40;;;;;;;5.50;3.28;;;;;;;28.47;50.76;93408.91;4981006;28;20054;-80
2021/08/13 14:17:06;;;;;;;5.70;3.53;;;;;;;28.30;51.71;93404.97;4976514;28;20101;-81
2021/08/13 14:19:32;;;;;;;5.18;3.25;;;;;;;28.37;50.88;93402.31;4998800;28;20046;-80
2021/08/13 14:21:58;;;;;;;6.32;3.35;;;;;;;28.48;51.95;93402.41;4972227;28;20054;-82
2021/08/13 14:24:24;;;;;;;5.20;3.40;;;;;;;28.78;51.16;93391.38;5020610;28;20113;-82
2021/08/13 14:26:49;;;;;;;4.95;3.17;;;;;;;28.81;51.11;93394.06;5000616;28;20042;-82
2021/08/13 14:29:16;;;;;;;5.05;3.20;;;;;;;28.89;50.41;93386.81;5001962;28;20050;-82
2021/08/13 14:31:42;;;;;;;4.93;2.95;;;;;;;28.98;50.09;93389.13;5002588;28;20518;-80
2021/08/13 14:34:08;;;;;;;6.50;4.20;;;;;;;28.57;51.13;93392.06;4980890;28;20146;-81
2021/08/13 14:36:34;;;;;;;5.43;3.35;;;;;;;28.65;51.25;93386.31;4990002;28;20050;-81
2021/08/13 14:39:00;;;;;;;5.30;2.95;;;;;;;28.73;52.72;93395.22;5005219;28;20064;-83
2021/08/13 14:41:25;;;;;;;4.85;2.95;;;;;;;28.78;51.51;93384.06;4983172;28;20042;-80
2021/08/13 14:43:51;;;;;;;6.10;3.28;;;;;;;29.07;52.76;93392.25;5000907;28;20136;-80
2021/08/13 14:46:17;;;;;;;6.63;3.58;;;;;;;29.01;50.89;93385.69;4988504;28;20038;-80
2021/08/13 14:48:43;;;;;;;4.72;3.05;;;;;;;28.81;50.68;93386.00;4992701;28;20126;-81
2021/08/13 14:51:09;;;;;;;4.50;2.90;;;;;;;29.08;52.22;93385.72;4983421;28;20056;-83
2021/08/13 14:53:36;;;;;;;5.35;3.50;;;;;;;29.13;51.16;93388.03;4981391;28;20073;-82
2021/08/13 14:56:03;;;;;;;6.57;3.67;;;;;;;29.05;50.25;93381.84;5020232;28;20068;-82
2021/08/13 14:58:28;;;;;;;6.10;3.55;;;;;;;29.02;49.89;93381.81;4985492;28;20125;-82
2021/08/13 15:00:55;;;;;;;5.43;3.80;;;;;;;28.82;50.52;93384.06;4982616;28;20038;-82
2021/08/13 15:03:20;;;;;;;6.40;3.67;;;;;;;28.95;50.39;93390.66;4992475;28;20065;-83
2021/08/13 15:05:46;;;;;;;8.45;3.58;;;;;;;29.02;52.18;93388.00;5002242;28;20046;-83
2021/08/13 15:08:12;;;;;;;7.35;4.20;;;;;;;29.05;51.59;93387.25;5018465;28;20482;-82
2021/08/13 15:10:39;;;;;;;6.38;4.07;;;;;;;28.68;52.39;93387.47;4994694;28;20427;-81
2021/08/13 15:13:04;;;;;;;6.35;3.45;;;;;;;28.82;52.54;93373.28;5003722;28;20061;-82
2021/08/13 15:15:30;;;;;;;4.70;3.03;;;;;;;28.67;52.48;93371.72;4998232;28;20440;-83
2021/08/13 15:17:56;;;;;;;5.95;3.83;;;;;;;28.58;52.66;93380.16;4980112;28;20546;-83
2021/08/13 15:20:22;;;;;;;5.38;3.88;;;;;;;28.30;53.70;93378.03;4996416;28;20049;-83
2021/08/13 15:22:48;;;;;;;6.55;3.50;;;;;;;28.58;52.12;93380.16;4969000;28;20047;-82
2021/08/13 15:25:14;;;;;;;5.63;3.53;;;;;;;28.70;51.22;93377.09;4961475;28;20050;-83
2021/08/13 15:27:40;;;;;;;5.82;3.63;;;;;;;28.67;51.93;93372.47;4971783;28;20121;-82
2021/08/13 15:30:06;;;;;;;6.05;3.40;;;;;;;28.82;51.46;93366.00;4971719;28;20410;-82